Time;durP1;ratioP1;P1;durP2;ratioP2;P2;SDS_P1;SDS_P2;PMS_P1;PMS_P2;Temp;Humidity;BMP_temperature;BMP_pressure;BME280_temperature;BME280_humidity;BME280_pressure;Samples;Min_cycle;Max_cycle;Signal;HPM_P1;HPM_P2
2021/07/28 00:00:04;;;;;;;13.75;11.02;;;;;;;;;;5031124;28;20696;-67
2021/07/28 00:02:29;;;;;;;13.93;10.93;;;;;;;;;;5031258;28;20178;-69
2021/07/28 00:04:54;;;;;;;14.30;10.35;;;;;;;;;;5023533;28;20189;-67
2021/07/28 00:07:20;;;;;;;11.63;9.90;;;;;;;;;;5014518;28;20178;-69
2021/07/28 00:09:45;;;;;;;13.73;11.10;;;;;;;;;;5020682;28;20652;-67
2021/07/28 00:12:10;;;;;;;12.35;10.85;;;;;;;;;;5030579;28;20220;-69
2021/07/28 00:14:36;;;;;;;13.73;11.30;;;;;;;;;;5031573;28;20228;-67
2021/07/28 00:17:02;;;;;;;11.85;10.07;;;;;;;;;;5013671;28;20186;-68
2021/07/28 00:19:32;;;;;;;16.33;11.52;;;;;;;;;;5024778;28;20261;-69
2021/07/28 00:24:41;;;;;;;15.60;11.75;;;;;;;;;;5023975;28;20205;-69
2021/07/28 00:27:06;;;;;;;13.85;11.90;;;;;;;;;;5017180;28;20194;-69
2021/07/28 00:29:35;;;;;;;18.45;11.80;;;;;;;;;;5021978;28;20573;-68
2021/07/28 00:32:00;;;;;;;12.30;10.55;;;;;;;;;;5022039;28;20194;-69
2021/07/28 00:34:26;;;;;;;14.32;12.40;;;;;;;;;;5012049;28;20195;-70
2021/07/28 00:36:51;;;;;;;14.82;12.32;;;;;;;;;;5025623;28;20182;-69
2021/07/28 00:39:16;;;;;;;15.63;12.35;;;;;;;;;;5015674;28;20646;-70
2021/07/28 00:41:43;;;;;;;12.85;11.18;;;;;;;;;;5018135;28;20531;-69
2021/07/28 00:44:08;;;;;;;15.10;12.07;;;;;;;;;;5011336;28;20187;-69
2021/07/28 00:46:34;;;;;;;16.45;13.20;;;;;;;;;;5022500;28;20213;-69
2021/07/28 00:49:00;;;;;;;16.92;13.18;;;;;;;;;;5014057;28;20207;-69
2021/07/28 00:51:25;;;;;;;16.70;13.45;;;;;;;;;;5030274;28;20272;-69
2021/07/28 00:53:51;;;;;;;13.48;11.32;;;;;;;;;;5016132;28;20190;-69
2021/07/28 00:56:18;;;;;;;17.90;13.73;;;;;;;;;;5025077;28;20233;-69
2021/07/28 00:58:44;;;;;;;14.52;12.80;;;;;;;;;;5015682;28;20564;-69
2021/07/28 01:01:09;;;;;;;19.70;12.27;;;;;;;;;;5019605;28;20181;-68
2021/07/28 01:03:35;;;;;;;18.75;14.13;;;;;;;;;;5015372;28;20182;-68
2021/07/28 01:06:00;;;;;;;18.00;13.85;;;;;;;;;;5019807;28;20192;-69
2021/07/28 01:08:26;;;;;;;22.42;15.50;;;;;;;;;;5024631;28;20201;-68
2021/07/28 01:10:52;;;;;;;19.02;14.65;;;;;;;;;;5014986;28;20195;-69
2021/07/28 01:13:26;;;;;;;17.48;13.50;;;;;;;;;;5023486;28;20198;-68
2021/07/28 01:15:57;;;;;;;19.30;16.50;;;;;;;;;;5019272;28;20599;-69
2021/07/28 01:18:22;;;;;;;21.75;17.23;;;;;;;;;;5019026;28;20267;-69
2021/07/28 01:20:48;;;;;;;21.65;17.13;;;;;;;;;;5018378;28;20288;-69
2021/07/28 01:23:13;;;;;;;18.50;16.08;;;;;;;;;;5025294;28;20286;-69
2021/07/28 01:25:39;;;;;;;20.77;15.50;;;;;;;;;;5030508;28;20256;-69
2021/07/28 01:28:06;;;;;;;19.33;15.43;;;;;;;;;;5019163;28;20274;-69
2021/07/28 01:30:32;;;;;;;21.08;16.63;;;;;;;;;;5021822;28;20210;-69
2021/07/28 01:33:00;;;;;;;24.73;17.90;;;;;;;;;;5021378;28;20664;-69
2021/07/28 01:35:27;;;;;;;22.80;17.85;;;;;;;;;;5018820;28;20224;-69
2021/07/28 01:37:53;;;;;;;23.60;17.95;;;;;;;;;;5019518;28;20193;-69
2021/07/28 01:40:19;;;;;;;22.60;18.55;;;;;;;;;;5023265;28;20394;-69
2021/07/28 01:42:46;;;;;;;22.92;17.77;;;;;;;;;;5016613;28;20194;-69
2021/07/28 01:45:12;;;;;;;22.73;17.50;;;;;;;;;;5021322;28;20233;-69
2021/07/28 01:47:38;;;;;;;26.13;19.17;;;;;;;;;;5012288;28;20225;-69
2021/07/28 01:50:07;;;;;;;27.60;20.65;;;;;;;;;;5023724;28;20210;-69
2021/07/28 01:52:34;;;;;;;27.90;19.38;;;;;;;;;;5010859;28;20229;-69
2021/07/28 01:54:59;;;;;;;21.45;17.48;;;;;;;;;;5028899;28;20561;-69
2021/07/28 01:57:24;;;;;;;23.75;16.25;;;;;;;;;;5013747;28;20229;-69
2021/07/28 01:59:51;;;;;;;23.70;17.65;;;;;;;;;;5024608;28;20190;-69
2021/07/28 02:02:16;;;;;;;21.65;16.40;;;;;;;;;;5012556;28;20236;-68
2021/07/28 02:04:42;;;;;;;21.73;15.98;;;;;;;;;;5022908;28;20187;-69
2021/07/28 02:07:07;;;;;;;27.67;18.33;;;;;;;;;;5045683;28;20182;-69
2021/07/28 02:09:32;;;;;;;22.65;17.75;;;;;;;;;;5025267;28;20217;-69
2021/07/28 02:11:58;;;;;;;24.75;19.48;;;;;;;;;;5020612;28;20193;-69
2021/07/28 02:14:23;;;;;;;27.35;19.48;;;;;;;;;;5019102;28;20182;-69
2021/07/28 02:16:48;;;;;;;26.23;19.85;;;;;;;;;;5020451;28;20190;-69
2021/07/28 02:19:14;;;;;;;25.23;20.00;;;;;;;;;;5013147;28;20208;-69
2021/07/28 02:21:39;;;;;;;30.38;20.27;;;;;;;;;;5022541;28;20185;-69
2021/07/28 02:24:05;;;;;;;27.35;20.00;;;;;;;;;;5009600;28;20276;-69
2021/07/28 02:26:30;;;;;;;28.10;20.30;;;;;;;;;;5021750;28;20190;-69
2021/07/28 02:28:55;;;;;;;29.70;20.33;;;;;;;;;;5013853;28;20210;-68
2021/07/28 02:31:20;;;;;;;28.80;20.95;;;;;;;;;;5021272;28;20252;-69
2021/07/28 02:33:46;;;;;;;27.75;21.40;;;;;;;;;;5015153;28;20702;-69
2021/07/28 02:36:11;;;;;;;29.65;20.60;;;;;;;;;;5024829;28;20596;-69
2021/07/28 02:38:36;;;;;;;26.38;17.92;;;;;;;;;;5033129;28;20229;-68
2021/07/28 02:41:02;;;;;;;26.95;20.15;;;;;;;;;;5027751;28;20281;-67
2021/07/28 02:43:28;;;;;;;22.02;16.52;;;;;;;;;;5026434;28;20213;-69
2021/07/28 02:45:53;;;;;;;26.70;18.95;;;;;;;;;;5017579;28;20194;-69
2021/07/28 02:48:18;;;;;;;26.80;20.40;;;;;;;;;;5036176;28;20296;-69
2021/07/28 02:50:44;;;;;;;25.35;20.05;;;;;;;;;;5013412;28;20273;-68
2021/07/28 02:53:09;;;;;;;29.77;22.58;;;;;;;;;;5045180;28;20190;-69
2021/07/28 02:55:34;;;;;;;33.20;21.30;;;;;;;;;;5012718;28;20190;-69
2021/07/28 02:58:00;;;;;;;32.45;21.35;;;;;;;;;;5028550;28;20184;-69
2021/07/28 03:00:25;;;;;;;30.85;21.40;;;;;;;;;;5016566;28;20210;-69
2021/07/28 03:02:50;;;;;;;34.47;22.88;;;;;;;;;;5037062;28;20189;-69
2021/07/28 03:05:16;;;;;;;32.13;22.35;;;;;;;;;;5016784;28;20682;-69
2021/07/28 03:07:41;;;;;;;28.80;19.67;;;;;;;;;;5030066;28;20240;-69
2021/07/28 03:10:07;;;;;;;33.80;22.67;;;;;;;;;;5012693;28;20293;-69
2021/07/28 03:12:33;;;;;;;33.53;21.75;;;;;;;;;;5035128;28;20196;-68
2021/07/28 03:14:58;;;;;;;29.60;21.27;;;;;;;;;;5018484;28;20185;-67
2021/07/28 03:17:23;;;;;;;35.85;22.33;;;;;;;;;;5018286;28;20563;-68
2021/07/28 03:19:49;;;;;;;34.10;21.20;;;;;;;;;;5022534;28;20380;-69
2021/07/28 03:22:14;;;;;;;31.17;21.35;;;;;;;;;;5026578;28;20190;-67
2021/07/28 03:24:39;;;;;;;34.50;21.45;;;;;;;;;;5025641;28;20662;-68
2021/07/28 03:27:05;;;;;;;29.98;20.92;;;;;;;;;;5015979;28;20194;-69
2021/07/28 03:29:31;;;;;;;34.05;22.42;;;;;;;;;;5034097;28;20280;-68
2021/07/28 03:31:56;;;;;;;27.98;19.52;;;;;;;;;;5026019;28;20178;-68
2021/07/28 03:34:22;;;;;;;32.05;21.27;;;;;;;;;;5021793;28;20623;-68
2021/07/28 03:36:47;;;;;;;33.20;21.42;;;;;;;;;;5015499;28;20617;-68
2021/07/28 03:39:12;;;;;;;32.42;23.45;;;;;;;;;;5024508;28;20235;-68
2021/07/28 03:41:38;;;;;;;34.97;21.98;;;;;;;;;;5017497;28;20649;-69
2021/07/28 03:44:03;;;;;;;36.05;23.02;;;;;;;;;;5026221;28;20193;-67
2021/07/28 03:46:29;;;;;;;30.70;21.20;;;;;;;;;;5023645;28;20582;-67
2021/07/28 03:48:54;;;;;;;29.52;20.83;;;;;;;;;;5012485;28;20231;-67
2021/07/28 03:51:19;;;;;;;24.80;17.88;;;;;;;;;;5030471;28;20630;-68
2021/07/28 03:53:45;;;;;;;31.55;19.95;;;;;;;;;;5016510;28;20187;-67
2021/07/28 03:56:10;;;;;;;30.52;20.13;;;;;;;;;;5024957;28;20231;-68
2021/07/28 03:58:35;;;;;;;29.63;19.25;;;;;;;;;;5017069;28;20216;-68
2021/07/28 04:01:01;;;;;;;33.47;20.10;;;;;;;;;;5032968;28;20206;-68
2021/07/28 04:03:26;;;;;;;29.70;18.95;;;;;;;;;;5014993;28;20650;-67
2021/07/28 04:05:54;;;;;;;29.80;18.40;;;;;;;;;;5033635;28;20580;-68
2021/07/28 04:08:20;;;;;;;27.02;17.20;;;;;;;;;;5016838;28;20627;-67
2021/07/28 04:10:46;;;;;;;29.90;18.67;;;;;;;;;;5029024;28;20193;-68
2021/07/28 04:13:11;;;;;;;24.58;16.27;;;;;;;;;;5014709;28;20220;-69
2021/07/28 04:15:37;;;;;;;29.60;17.83;;;;;;;;;;5030200;28;20663;-68
2021/07/28 04:18:02;;;;;;;24.98;18.48;;;;;;;;;;5020815;28;20200;-68
2021/07/28 04:20:28;;;;;;;23.83;16.27;;;;;;;;;;5024140;28;20186;-69
2021/07/28 04:22:53;;;;;;;24.02;17.13;;;;;;;;;;5020897;28;20182;-68
2021/07/28 04:25:18;;;;;;;24.02;17.60;;;;;;;;;;5018868;28;20193;-68
2021/07/28 04:27:44;;;;;;;26.58;17.40;;;;;;;;;;5021444;28;20273;-68
2021/07/28 04:30:10;;;;;;;24.30;16.67;;;;;;;;;;5012606;28;20631;-69
2021/07/28 04:32:35;;;;;;;25.05;17.98;;;;;;;;;;5035214;28;20292;-68
2021/07/28 04:35:00;;;;;;;25.10;16.95;;;;;;;;;;5015838;28;20195;-68
2021/07/28 04:37:26;;;;;;;21.77;16.38;;;;;;;;;;5020394;28;20691;-69
2021/07/28 04:39:51;;;;;;;27.33;17.58;;;;;;;;;;5016650;28;20182;-68
2021/07/28 04:42:16;;;;;;;25.73;16.27;;;;;;;;;;5019636;28;20276;-69
2021/07/28 04:44:42;;;;;;;26.20;17.92;;;;;;;;;;5018615;28;20178;-69
2021/07/28 04:47:07;;;;;;;21.08;15.75;;;;;;;;;;5021846;28;20666;-68
2021/07/28 04:49:32;;;;;;;24.90;16.50;;;;;;;;;;5021552;28;20605;-68
2021/07/28 04:51:58;;;;;;;19.63;14.65;;;;;;;;;;5016597;28;20197;-68
2021/07/28 04:54:23;;;;;;;21.58;15.70;;;;;;;;;;5033585;28;20622;-68
2021/07/28 04:56:48;;;;;;;19.63;14.75;;;;;;;;;;5013595;28;20222;-67
2021/07/28 04:59:14;;;;;;;24.67;15.73;;;;;;;;;;5029664;28;20298;-69
2021/07/28 05:01:39;;;;;;;25.52;15.38;;;;;;;;;;5012507;28;20678;-69
2021/07/28 05:04:05;;;;;;;22.63;15.50;;;;;;;;;;5027579;28;20182;-69
2021/07/28 05:06:31;;;;;;;24.45;15.30;;;;;;;;;;5013685;28;20194;-67
2021/07/28 05:08:57;;;;;;;20.17;14.98;;;;;;;;;;5060485;28;20509;-67
2021/07/28 05:11:22;;;;;;;22.73;14.57;;;;;;;;;;5026038;28;20182;-68
2021/07/28 05:13:47;;;;;;;20.92;14.88;;;;;;;;;;5021794;28;20544;-67
2021/07/28 05:16:13;;;;;;;19.40;14.57;;;;;;;;;;5014687;28;20633;-69
2021/07/28 05:18:38;;;;;;;19.15;13.40;;;;;;;;;;5021059;28;20171;-68
2021/07/28 05:21:03;;;;;;;23.65;14.48;;;;;;;;;;5018725;28;20192;-69
2021/07/28 05:23:29;;;;;;;21.17;13.60;;;;;;;;;;5013573;28;20201;-68
2021/07/28 05:25:54;;;;;;;18.80;12.57;;;;;;;;;;5020745;28;20190;-68
2021/07/28 05:28:19;;;;;;;22.13;12.40;;;;;;;;;;5010084;28;20198;-68
2021/07/28 05:30:45;;;;;;;18.58;13.80;;;;;;;;;;5020838;28;20205;-67
2021/07/28 05:33:10;;;;;;;18.92;13.32;;;;;;;;;;5020935;28;20217;-67
2021/07/28 05:35:36;;;;;;;21.35;13.32;;;;;;;;;;5018352;28;20541;-67
2021/07/28 05:38:03;;;;;;;18.88;13.90;;;;;;;;;;5015957;28;20203;-68
2021/07/28 05:40:29;;;;;;;21.73;13.70;;;;;;;;;;5015515;28;20213;-67
2021/07/28 05:42:55;;;;;;;17.83;13.00;;;;;;;;;;5018076;28;20268;-67
2021/07/28 05:45:20;;;;;;;21.27;14.00;;;;;;;;;;5021528;28;20229;-67
2021/07/28 05:47:46;;;;;;;16.77;12.90;;;;;;;;;;5021946;28;20193;-67
2021/07/28 05:50:15;;;;;;;18.27;13.73;;;;;;;;;;5021004;28;20217;-68
2021/07/28 05:52:41;;;;;;;16.73;13.82;;;;;;;;;;5032272;28;20657;-67
2021/07/28 05:55:08;;;;;;;19.80;13.73;;;;;;;;;;5014624;28;20181;-68
2021/07/28 05:57:33;;;;;;;20.27;13.80;;;;;;;;;;5024975;28;20317;-68
2021/07/28 05:59:58;;;;;;;22.63;13.48;;;;;;;;;;5015440;28;20293;-67
2021/07/28 06:02:23;;;;;;;16.52;11.95;;;;;;;;;;5020486;28;20188;-68
2021/07/28 06:04:49;;;;;;;17.08;13.40;;;;;;;;;;5011633;28;20190;-68
2021/07/28 06:07:14;;;;;;;15.88;11.98;;;;;;;;;;5026204;28;20190;-68
2021/07/28 06:09:40;;;;;;;18.67;13.23;;;;;;;;;;5013686;28;20696;-68
2021/07/28 06:12:07;;;;;;;16.83;12.70;;;;;;;;;;5024918;28;20257;-67
2021/07/28 06:14:32;;;;;;;17.88;12.98;;;;;;;;;;5047042;28;20649;-68
2021/07/28 06:16:57;;;;;;;19.95;12.13;;;;;;;;;;5026716;28;20188;-68
2021/07/28 06:19:23;;;;;;;16.08;12.75;;;;;;;;;;5011785;28;20189;-67
2021/07/28 06:21:48;;;;;;;18.48;12.18;;;;;;;;;;5020854;28;20232;-67
2021/07/28 06:24:13;;;;;;;15.23;11.82;;;;;;;;;;5019265;28;20209;-67
2021/07/28 06:26:39;;;;;;;16.65;10.57;;;;;;;;;;5013329;28;20632;-68
2021/07/28 06:29:04;;;;;;;13.38;11.52;;;;;;;;;;5021972;28;20213;-68
2021/07/28 06:31:29;;;;;;;16.55;10.70;;;;;;;;;;5021335;28;20224;-67
2021/07/28 06:33:55;;;;;;;16.60;11.77;;;;;;;;;;5021692;28;20205;-68
2021/07/28 06:36:20;;;;;;;13.85;11.63;;;;;;;;;;5012449;28;20201;-69
2021/07/28 06:38:45;;;;;;;16.27;11.68;;;;;;;;;;5018115;28;20182;-68
2021/07/28 06:41:10;;;;;;;14.60;11.27;;;;;;;;;;5029272;28;20213;-67
2021/07/28 06:43:36;;;;;;;15.93;10.95;;;;;;;;;;5019615;28;20197;-68
2021/07/28 06:46:01;;;;;;;15.77;10.30;;;;;;;;;;5016800;28;20186;-69
2021/07/28 06:48:27;;;;;;;16.80;11.18;;;;;;;;;;5022179;28;20664;-67
2021/07/28 06:50:53;;;;;;;14.98;10.98;;;;;;;;;;5043733;28;20646;-67
2021/07/28 06:53:19;;;;;;;16.83;10.90;;;;;;;;;;5019369;28;20228;-69
2021/07/28 06:55:44;;;;;;;17.70;10.40;;;;;;;;;;5023853;28;20249;-66
2021/07/28 06:58:09;;;;;;;14.98;11.35;;;;;;;;;;5014021;28;20194;-68
2021/07/28 07:00:35;;;;;;;14.68;10.48;;;;;;;;;;5025073;28;20232;-66
2021/07/28 07:03:00;;;;;;;17.75;10.65;;;;;;;;;;5012501;28;20186;-66
2021/07/28 07:05:26;;;;;;;12.95;11.00;;;;;;;;;;5019067;28;20197;-67
2021/07/28 07:07:52;;;;;;;14.57;10.80;;;;;;;;;;5016667;28;20681;-68
2021/07/28 07:10:18;;;;;;;15.00;10.88;;;;;;;;;;5021966;28;20279;-69
2021/07/28 07:12:43;;;;;;;13.75;11.30;;;;;;;;;;5012937;28;20579;-68
2021/07/28 07:15:08;;;;;;;15.88;11.98;;;;;;;;;;5022748;28;20189;-68
2021/07/28 07:17:34;;;;;;;17.63;11.25;;;;;;;;;;5011450;28;20183;-69
2021/07/28 07:19:59;;;;;;;18.35;11.77;;;;;;;;;;5020985;28;20182;-69
2021/07/28 07:22:25;;;;;;;14.63;11.30;;;;;;;;;;5016276;28;20248;-67
2021/07/28 07:24:50;;;;;;;15.82;11.75;;;;;;;;;;5025846;28;20186;-69
2021/07/28 07:27:16;;;;;;;15.13;11.57;;;;;;;;;;5020204;28;20190;-67
2021/07/28 07:29:41;;;;;;;14.35;11.45;;;;;;;;;;5023886;28;20667;-69
2021/07/28 07:32:06;;;;;;;15.77;12.35;;;;;;;;;;5026286;28;20195;-70
2021/07/28 07:34:32;;;;;;;18.90;12.25;;;;;;;;;;5019160;28;20297;-67
2021/07/28 07:36:58;;;;;;;13.43;11.25;;;;;;;;;;5023877;28;20197;-70
2021/07/28 07:39:23;;;;;;;14.57;12.60;;;;;;;;;;5017388;28;20205;-67
2021/07/28 07:41:48;;;;;;;17.40;12.35;;;;;;;;;;5024426;28;20190;-69
2021/07/28 07:44:13;;;;;;;19.73;12.05;;;;;;;;;;5018547;28;20651;-70
2021/07/28 07:46:39;;;;;;;19.50;11.27;;;;;;;;;;5021194;28;20190;-67
2021/07/28 07:49:04;;;;;;;15.10;11.25;;;;;;;;;;5013804;28;20238;-68
2021/07/28 07:51:30;;;;;;;16.17;11.68;;;;;;;;;;5022979;28;20193;-67
2021/07/28 07:53:59;;;;;;;15.43;11.18;;;;;;;;;;5014358;28;20514;-69
2021/07/28 07:56:24;;;;;;;13.77;10.93;;;;;;;;;;5026347;28;20238;-69
2021/07/28 07:58:49;;;;;;;15.85;12.00;;;;;;;;;;5029433;28;20190;-70
2021/07/28 08:01:15;;;;;;;15.55;10.80;;;;;;;;;;5011480;28;20222;-67
2021/07/28 08:03:42;;;;;;;14.70;11.50;;;;;;;;;;5027370;28;20254;-70
2021/07/28 08:06:08;;;;;;;17.58;13.13;;;;;;;;;;5019300;28;20201;-68
2021/07/28 08:08:34;;;;;;;21.77;12.25;;;;;;;;;;5027266;28;20229;-68
2021/07/28 08:11:00;;;;;;;16.38;12.13;;;;;;;;;;5018773;28;20189;-68
2021/07/28 08:13:27;;;;;;;15.40;10.82;;;;;;;;;;5025364;28;20198;-66
2021/07/28 08:15:53;;;;;;;12.60;10.68;;;;;;;;;;5024163;28;20224;-68
2021/07/28 08:18:19;;;;;;;12.90;11.20;;;;;;;;;;5025297;28;20702;-68
2021/07/28 08:20:45;;;;;;;14.57;12.00;;;;;;;;;;5021486;28;20189;-69
2021/07/28 08:23:13;;;;;;;14.02;11.63;;;;;;;;;;5030792;28;20200;-70
2021/07/28 08:25:38;;;;;;;13.35;10.90;;;;;;;;;;5013982;28;20641;-70
2021/07/28 08:28:03;;;;;;;13.63;12.05;;;;;;;;;;5042649;28;20193;-68
2021/07/28 08:30:30;;;;;;;15.93;11.63;;;;;;;;;;5016632;28;20275;-71
2021/07/28 08:32:55;;;;;;;15.02;11.75;;;;;;;;;;5021445;28;20650;-69
2021/07/28 08:35:21;;;;;;;14.70;11.00;;;;;;;;;;5028910;28;20181;-69
2021/07/28 08:37:46;;;;;;;14.25;10.90;;;;;;;;;;5020432;28;20194;-70
2021/07/28 08:40:14;;;;;;;13.48;10.80;;;;;;;;;;5020357;28;20206;-69
2021/07/28 08:42:45;;;;;;;16.00;10.25;;;;;;;;;;5013567;28;20273;-67
2021/07/28 08:45:13;;;;;;;12.07;10.38;;;;;;;;;;5020491;28;20178;-67
2021/07/28 08:47:39;;;;;;;12.82;10.77;;;;;;;;;;5016656;28;20182;-68
2021/07/28 08:50:06;;;;;;;13.95;10.88;;;;;;;;;;5031601;28;20209;-69
2021/07/28 08:52:33;;;;;;;11.75;10.50;;;;;;;;;;5010964;28;20214;-69
2021/07/28 08:54:59;;;;;;;13.35;10.50;;;;;;;;;;5026074;28;20179;-68
2021/07/28 08:57:26;;;;;;;12.88;10.00;;;;;;;;;;5015229;28;20535;-68
2021/07/28 08:59:56;;;;;;;12.93;10.20;;;;;;;;;;5030284;28;20288;-69
2021/07/28 09:02:22;;;;;;;12.55;10.00;;;;;;;;;;5015098;28;20292;-70
2021/07/28 09:04:47;;;;;;;13.98;10.02;;;;;;;;;;5025274;28;20616;-69
2021/07/28 09:07:17;;;;;;;12.70;10.50;;;;;;;;;;5022244;28;20507;-67
2021/07/28 09:09:53;;;;;;;11.55;9.10;;;;;;;;;;5018803;28;20210;-68
2021/07/28 09:12:20;;;;;;;13.02;9.38;;;;;;;;;;5020435;28;20220;-68
2021/07/28 09:14:56;;;;;;;10.20;8.98;;;;;;;;;;5012313;28;20197;-68
2021/07/28 09:17:26;;;;;;;10.38;9.02;;;;;;;;;;5020712;28;20212;-66
2021/07/28 09:19:52;;;;;;;10.77;8.43;;;;;;;;;;5013203;28;20186;-68
2021/07/28 09:22:21;;;;;;;9.85;8.48;;;;;;;;;;5020464;28;20182;-69
2021/07/28 09:25:21;;;;;;;7.82;7.05;;;;;;;;;;5019633;28;20182;-70
2021/07/28 09:27:49;;;;;;;10.82;7.22;;;;;;;;;;5020539;28;20193;-68
2021/07/28 09:30:24;;;;;;;8.68;6.82;;;;;;;;;;5013201;28;20675;-67
2021/07/28 09:33:12;;;;;;;11.68;7.55;;;;;;;;;;5019932;28;20289;-69
2021/07/28 09:35:47;;;;;;;9.73;7.38;;;;;;;;;;5014417;28;20684;-70
2021/07/28 09:38:43;;;;;;;9.60;7.30;;;;;;;;;;5024450;28;20255;-69
2021/07/28 09:41:17;;;;;;;8.30;6.20;;;;;;;;;;5012429;28;20630;-70
2021/07/28 09:43:54;;;;;;;12.27;6.68;;;;;;;;;;5019850;28;20176;-68
2021/07/28 09:46:27;;;;;;;8.45;6.68;;;;;;;;;;5012169;28;20186;-67
2021/07/28 09:48:52;;;;;;;9.63;6.95;;;;;;;;;;5025413;28;20264;-68
2021/07/28 09:51:35;;;;;;;10.27;6.93;;;;;;;;;;5012624;28;20187;-69
2021/07/28 09:54:09;;;;;;;8.52;6.45;;;;;;;;;;5028112;28;20737;-68
2021/07/28 09:56:38;;;;;;;7.60;5.63;;;;;;;;;;5011492;28;20232;-69
2021/07/28 09:59:04;;;;;;;6.55;5.80;;;;;;;;;;5025775;28;20206;-69
2021/07/28 10:01:32;;;;;;;8.98;5.65;;;;;;;;;;5013104;28;20217;-69
2021/07/28 10:03:59;;;;;;;9.43;6.05;;;;;;;;;;5027492;28;20192;-68
2021/07/28 10:06:31;;;;;;;9.82;5.90;;;;;;;;;;5012534;28;20771;-71
2021/07/28 10:08:58;;;;;;;11.95;5.57;;;;;;;;;;5028887;28;20331;-68
2021/07/28 10:11:24;;;;;;;7.05;5.15;;;;;;;;;;5011818;28;20264;-68
2021/07/28 10:13:51;;;;;;;7.18;4.97;;;;;;;;;;5028962;28;20266;-70
2021/07/28 10:16:17;;;;;;;8.25;4.68;;;;;;;;;;5012136;28;20244;-67
2021/07/28 10:18:45;;;;;;;9.88;4.55;;;;;;;;;;5031007;28;20193;-69
2021/07/28 10:21:10;;;;;;;9.55;4.88;;;;;;;;;;5013630;28;20190;-68
2021/07/28 10:23:37;;;;;;;7.68;4.65;;;;;;;;;;5020015;28;20502;-69
2021/07/28 10:26:03;;;;;;;5.43;4.53;;;;;;;;;;5023658;28;20193;-68
2021/07/28 10:28:28;;;;;;;9.38;4.22;;;;;;;;;;5013671;28;20197;-68
2021/07/28 10:31:16;;;;;;;10.63;4.28;;;;;;;;;;5022653;28;20271;-67
2021/07/28 10:33:46;;;;;;;7.90;3.80;;;;;;;;;;5009831;28;20646;-69
2021/07/28 10:36:12;;;;;;;5.15;3.63;;;;;;;;;;5022945;28;20185;-69
2021/07/28 10:38:55;;;;;;;6.97;3.13;;;;;;;;;;5014802;28;20205;-67
2021/07/28 10:41:36;;;;;;;5.63;3.58;;;;;;;;;;5029125;28;20228;-69
2021/07/28 10:44:13;;;;;;;6.03;3.35;;;;;;;;;;5012819;28;20642;-67
2021/07/28 10:46:54;;;;;;;5.15;3.17;;;;;;;;;;5018074;28;20686;-69
2021/07/28 10:49:34;;;;;;;4.45;3.35;;;;;;;;;;5011776;28;20297;-68
2021/07/28 10:52:03;;;;;;;7.15;3.70;;;;;;;;;;5020591;28;20562;-69
2021/07/28 10:54:51;;;;;;;5.80;3.53;;;;;;;;;;5011982;28;20241;-68
2021/07/28 10:57:43;;;;;;;6.25;3.60;;;;;;;;;;5028188;28;20237;-68
2021/07/28 11:00:11;;;;;;;5.00;2.92;;;;;;;;;;5022146;28;20225;-69
2021/07/28 11:02:55;;;;;;;5.50;3.13;;;;;;;;;;5026160;28;20182;-66
2021/07/28 11:05:25;;;;;;;5.15;3.10;;;;;;;;;;5019700;28;20194;-68
2021/07/28 11:08:08;;;;;;;4.57;3.25;;;;;;;;;;5023000;28;20227;-68
2021/07/28 11:10:49;;;;;;;5.03;2.80;;;;;;;;;;5021023;28;20213;-68
2021/07/28 11:13:21;;;;;;;5.13;2.63;;;;;;;;;;5021410;28;20182;-68
2021/07/28 11:15:55;;;;;;;6.00;3.25;;;;;;;;;;5022988;28;20259;-68
2021/07/28 11:18:41;;;;;;;4.70;2.70;;;;;;;;;;5024648;28;20272;-67
2021/07/28 11:21:34;;;;;;;4.60;2.92;;;;;;;;;;5022927;28;20194;-69
2021/07/28 11:24:02;;;;;;;4.15;2.80;;;;;;;;;;5023329;28;20193;-70
2021/07/28 11:26:41;;;;;;;6.15;3.00;;;;;;;;;;5027957;28;20177;-68
2021/07/28 11:29:15;;;;;;;5.07;2.50;;;;;;;;;;5022513;28;20219;-67
2021/07/28 11:31:43;;;;;;;6.20;2.97;;;;;;;;;;5025783;28;20193;-70
2021/07/28 11:34:10;;;;;;;4.68;2.58;;;;;;;;;;5022155;28;20182;-68
2021/07/28 11:36:36;;;;;;;4.68;3.15;;;;;;;;;;5016178;28;20194;-72
2021/07/28 11:39:16;;;;;;;4.40;2.65;;;;;;;;;;5028367;28;20190;-68
2021/07/28 11:41:42;;;;;;;6.95;2.60;;;;;;;;;;5018864;28;20261;-70
2021/07/28 11:44:08;;;;;;;5.18;2.65;;;;;;;;;;5033887;28;20664;-70
2021/07/28 11:46:33;;;;;;;5.10;2.83;;;;;;;;;;5013517;28;20192;-68
2021/07/28 11:49:04;;;;;;;5.70;2.95;;;;;;;;;;5025804;28;20202;-69
2021/07/28 11:51:32;;;;;;;4.53;2.60;;;;;;;;;;5018238;28;20186;-70
2021/07/28 11:54:11;;;;;;;3.65;2.50;;;;;;;;;;5022228;28;20603;-69
2021/07/28 11:56:43;;;;;;;4.88;2.42;;;;;;;;;;5015398;28;20237;-69
2021/07/28 11:59:10;;;;;;;5.32;2.67;;;;;;;;;;5030151;28;20200;-68
2021/07/28 12:01:36;;;;;;;4.80;2.50;;;;;;;;;;5016279;28;20193;-69
2021/07/28 12:04:08;;;;;;;5.93;2.90;;;;;;;;;;5031057;28;20187;-68
2021/07/28 12:06:38;;;;;;;4.20;2.70;;;;;;;;;;5017720;28;20665;-73
2021/07/28 12:09:07;;;;;;;4.55;2.78;;;;;;;;;;5022720;28;20205;-68
2021/07/28 12:12:03;;;;;;;5.10;2.60;;;;;;;;;;5031913;28;21374;-69
2021/07/28 12:14:40;;;;;;;5.40;3.13;;;;;;;;;;5029844;28;20209;-72
2021/07/28 12:17:17;;;;;;;5.00;2.53;;;;;;;;;;5013811;28;20589;-70
2021/07/28 12:20:03;;;;;;;4.68;2.67;;;;;;;;;;5022870;28;20208;-67
2021/07/28 12:22:39;;;;;;;4.78;2.47;;;;;;;;;;5017971;28;20661;-69
2021/07/28 12:25:23;;;;;;;7.75;2.17;;;;;;;;;;5019690;28;20198;-68
2021/07/28 12:27:57;;;;;;;3.63;2.58;;;;;;;;;;5019375;28;20653;-71
2021/07/28 12:30:37;;;;;;;8.35;2.55;;;;;;;;;;5017471;28;20218;-71
2021/07/28 12:33:08;;;;;;;5.25;2.28;;;;;;;;;;5018996;28;20586;-68
2021/07/28 12:35:45;;;;;;;4.03;2.58;;;;;;;;;;5021972;28;20183;-69
2021/07/28 12:38:24;;;;;;;5.07;2.70;;;;;;;;;;5023555;28;20224;-69
2021/07/28 12:40:57;;;;;;;6.90;2.85;;;;;;;;;;5019498;28;20233;-68
2021/07/28 12:43:27;;;;;;;4.35;2.70;;;;;;;;;;5018841;28;20182;-69
2021/07/28 12:46:00;;;;;;;5.75;2.55;;;;;;;;;;5019699;28;20262;-69
2021/07/28 12:48:27;;;;;;;3.08;2.65;;;;;;;;;;5018636;28;20205;-68
2021/07/28 12:50:54;;;;;;;5.72;2.53;;;;;;;;;;5021779;28;20293;-68
2021/07/28 12:53:19;;;;;;;6.90;2.65;;;;;;;;;;5028920;28;20186;-68
2021/07/28 12:55:45;;;;;;;7.13;2.45;;;;;;;;;;5014082;28;20241;-69
2021/07/28 12:58:10;;;;;;;5.78;2.13;;;;;;;;;;5026639;28;20526;-69
2021/07/28 13:00:37;;;;;;;4.63;2.40;;;;;;;;;;5015937;28;20288;-69
2021/07/28 13:03:06;;;;;;;9.77;2.58;;;;;;;;;;5025361;28;20174;-69
2021/07/28 13:05:41;;;;;;;6.30;2.60;;;;;;;;;;5012185;28;20190;-71
2021/07/28 13:08:08;;;;;;;5.28;2.80;;;;;;;;;;5023586;28;20552;-70
2021/07/28 13:10:34;;;;;;;6.22;2.72;;;;;;;;;;5016397;28;20664;-72
2021/07/28 13:13:00;;;;;;;4.35;2.90;;;;;;;;;;5018884;28;20197;-68
2021/07/28 13:15:26;;;;;;;6.55;2.90;;;;;;;;;;5012414;28;20190;-69
2021/07/28 13:17:52;;;;;;;4.00;2.72;;;;;;;;;;5027306;28;20555;-69
2021/07/28 13:20:18;;;;;;;5.68;2.75;;;;;;;;;;5013995;28;20189;-68
2021/07/28 13:22:44;;;;;;;4.97;2.25;;;;;;;;;;5020522;28;20204;-68
2021/07/28 13:25:10;;;;;;;5.90;2.78;;;;;;;;;;5013599;28;20261;-71
2021/07/28 13:27:36;;;;;;;8.13;2.95;;;;;;;;;;5019849;28;20674;-70
2021/07/28 13:30:01;;;;;;;4.97;2.40;;;;;;;;;;5026650;28;20205;-68
2021/07/28 13:32:27;;;;;;;3.92;2.60;;;;;;;;;;5017038;28;20217;-70
2021/07/28 13:34:52;;;;;;;4.60;2.50;;;;;;;;;;5026471;28;20203;-68
2021/07/28 13:37:17;;;;;;;5.80;2.60;;;;;;;;;;5015402;28;20326;-70
2021/07/28 13:39:43;;;;;;;5.70;2.20;;;;;;;;;;5026368;28;20185;-68
2021/07/28 13:42:08;;;;;;;6.90;2.25;;;;;;;;;;5015772;28;20273;-68
2021/07/28 13:44:34;;;;;;;4.88;2.53;;;;;;;;;;5019455;28;20190;-69
2021/07/28 13:46:59;;;;;;;5.47;2.47;;;;;;;;;;5011668;28;20557;-68
2021/07/28 13:49:24;;;;;;;4.47;2.60;;;;;;;;;;5024748;28;20194;-69
2021/07/28 13:51:50;;;;;;;4.15;2.17;;;;;;;;;;5009198;28;20893;-69
2021/07/28 13:54:16;;;;;;;3.42;2.33;;;;;;;;;;5024295;28;20284;-68
2021/07/28 13:56:41;;;;;;;5.05;2.38;;;;;;;;;;5025464;28;20229;-68
2021/07/28 13:59:06;;;;;;;5.65;2.03;;;;;;;;;;5014443;28;20202;-68
2021/07/28 14:01:32;;;;;;;5.95;2.20;;;;;;;;;;5016508;28;20186;-69
2021/07/28 14:03:57;;;;;;;6.00;2.00;;;;;;;;;;5014020;28;20196;-68
2021/07/28 14:06:22;;;;;;;4.78;2.20;;;;;;;;;;5019231;28;20285;-69
2021/07/28 14:08:48;;;;;;;4.15;2.38;;;;;;;;;;5017798;28;20185;-67
2021/07/28 14:11:14;;;;;;;5.75;2.33;;;;;;;;;;5018848;28;20194;-68
2021/07/28 14:13:39;;;;;;;4.72;2.00;;;;;;;;;;5020637;28;20263;-68
2021/07/28 14:16:10;;;;;;;5.40;2.05;;;;;;;;;;5022511;28;20236;-68
2021/07/28 14:18:36;;;;;;;4.38;2.35;;;;;;;;;;5019424;28;20211;-69
2021/07/28 14:21:03;;;;;;;3.95;2.03;;;;;;;;;;5019286;28;20182;-68
2021/07/28 14:23:29;;;;;;;3.55;2.40;;;;;;;;;;5016783;28;20202;-68
2021/07/28 14:25:55;;;;;;;3.35;2.20;;;;;;;;;;5022496;28;20190;-69
2021/07/28 14:28:22;;;;;;;3.10;2.30;;;;;;;;;;5021949;28;20190;-68
2021/07/28 14:30:47;;;;;;;7.63;2.25;;;;;;;;;;5019333;28;20697;-67